Startpagina
METAR-TAF:

METAR-TAF

Vliegvelden :

Livingstone, Zambia

breedte: 17-49-18S, lengte: 025-49-22E, hoogte: 991 m

METAR: ontbreekt

Tijdstip: 06:11 (04:11 UTC)

Verwachting

Dit bericht is 6 uur en het 11 minuten geleden gemaakt, om 22:00 UTC
Verwachting geldig van 13 om 00 UTC tot 14 om 06 UTC
Wind 10 kt uit het zuidzuidoosten met uitschieters tot 15 kt
Zicht 10 km of meer
geen wolken onder 1500 m en geen cumulonimbus
Wijzigt naar
van 13 om 06 UTC tot 13 om 08 UTC
Wind 10 kt uit het oosten met uitschieters tot 20 kt
Wijzigt naar
van 13 om 12 UTC tot 13 om 14 UTC
Wind 10 kt uit het oosten
Wijzigt naar
van 13 om 18 UTC tot 13 om 20 UTC
Wind 5 kt uit het zuidoosten

TAF: FLHN 122200Z 1300/1406 15010G15KT CAVOK BECMG 1306/1308 10010G20KT BECMG 1312/1314 09010KT BECMG 1318/1320 13005KT

Waarnemingen en weersverwachtingen van meer dan 4000 vliegvelden (METAR en TAF).

De beschikbare stations zijn de gele en rode punten op de kaart.

Ga met uw muis naar het station om de naam te zien.

Klik dan om waarnemingen en weersverwachtingen te zien.

kaart wijzigen: klik op de groene knoppen met een zwart kruis om in te zoomen, op de groene knop met een streepje om uit te zoomen of op de groene pijlen voor aangrenzende kaarten.


METAR-TAF: